»·PEaware :: N64250 KPDX-KEUG

N64250 :: KPDX-KEUG

FLIGHT INFORMATION

Flight Status: Arrived
Operator: Privately registered:
United States
More flights under this callsign
Pilot: Scott B. (525)
Aircraft: CESSNA 172 SKYHAWK
(C172)
More flights by this aircraft type
Origin: KPDX Portland Intl
United States
Destination: KEUG Mahlon Sweet
United States
More flights between these airports :: More routes between these airports
Route: +
File this flight plan on PilotEdge
Remarks:
Altitude:
(Current/Filed)
4,500ft
Speed:
(Current/Filed)
0kts
Departed: 24-Jul-18 12:33 PM
Arrived: 24-Jul-18 01:29 PM
Distance/Time
Traveled:
92nm/0:56
Distance/Time
To Go:
Arrived

Flight Plot

Page will automatically refresh every two minutes.

Flight plan parsing failed; only flown route is shown


Map Options




Map Legend


Flown Route
Filed Route
Departure Airport
Arrival Airport
Navaid (VOR, NDB)
Fix

Horizontal Profiles

Position Reports

Time Latitude Longitude Heading Altitude Ground
Speed
24-Jul-18 12:23 45.586828 -122.583927 208 33ft 0kts
24-Jul-18 12:24 45.586822 -122.583932 208 33ft 0kts
24-Jul-18 12:25 45.586816 -122.583936 208 33ft 0kts
24-Jul-18 12:26 45.586810 -122.583941 208 33ft 0kts
24-Jul-18 12:27 45.586887 -122.583880 208 33ft 0kts
24-Jul-18 12:28 45.586983 -122.581683 120 33ft 12kts
24-Jul-18 12:29 45.586710 -122.577757 122 33ft 16kts
24-Jul-18 12:30 45.583799 -122.568974 23 33ft 2kts
24-Jul-18 12:31 45.583807 -122.568968 23 33ft 0kts
24-Jul-18 12:32 45.583812 -122.568965 23 33ft 0kts
24-Jul-18 12:33 45.583818 -122.568961 23 33ft 0kts
24-Jul-18 12:34 45.584961 -122.570518 299 33ft 48kts
24-Jul-18 12:35 45.593886 -122.594697 296 774ft 75kts
24-Jul-18 12:36 45.591466 -122.622083 202 1482ft 90kts
24-Jul-18 12:37 45.567492 -122.635410 200 2192ft 93kts
24-Jul-18 12:38 45.543097 -122.648559 200 2891ft 93kts
24-Jul-18 12:39 45.516571 -122.662617 200 3222ft 112kts
24-Jul-18 12:40 45.490248 -122.678361 228 3748ft 102kts
24-Jul-18 12:41 45.465333 -122.696095 200 4257ft 100kts
24-Jul-18 12:42 45.437960 -122.711526 208 4492ft 116kts
24-Jul-18 12:43 45.410848 -122.736626 200 4506ft 121kts
24-Jul-18 12:44 45.377604 -122.746538 190 4501ft 122kts
24-Jul-18 12:45 45.344064 -122.755228 190 4500ft 122kts
24-Jul-18 12:46 45.312862 -122.770795 234 4497ft 122kts
24-Jul-18 12:47 45.291089 -122.807186 200 4488ft 123kts
24-Jul-18 12:48 45.257552 -122.816080 189 4502ft 122kts
24-Jul-18 12:49 45.223685 -122.813629 173 4501ft 122kts
24-Jul-18 12:50 45.189761 -122.808676 174 4500ft 122kts
24-Jul-18 12:51 45.155704 -122.804165 174 4500ft 122kts
24-Jul-18 12:52 45.121721 -122.800142 175 4500ft 122kts
24-Jul-18 12:53 45.087881 -122.802816 192 4500ft 122kts
24-Jul-18 12:54 45.054929 -122.815834 196 4500ft 122kts
24-Jul-18 12:55 45.022317 -122.829892 196 4500ft 122kts
24-Jul-18 12:56 44.990073 -122.843944 197 4493ft 118kts
24-Jul-18 12:57 44.964166 -122.855219 196 4499ft 116kts
24-Jul-18 12:58 44.928099 -122.870828 196 4500ft 116kts
24-Jul-18 12:59 44.896851 -122.884330 196 4500ft 116kts
24-Jul-18 13:00 44.865819 -122.897841 196 4500ft 116kts
24-Jul-18 13:01 44.839967 -122.909009 196 4500ft 116kts
24-Jul-18 13:02 44.803677 -122.924641 196 4500ft 116kts
24-Jul-18 13:03 44.777836 -122.935757 196 4500ft 116kts
24-Jul-18 13:04 44.746824 -122.949084 196 4500ft 116kts
24-Jul-18 13:05 44.715665 -122.962459 196 4500ft 116kts
24-Jul-18 13:06 44.679471 -122.978175 196 4500ft 116kts
24-Jul-18 13:07 44.653520 -122.989312 196 4500ft 116kts
24-Jul-18 13:08 44.622487 -123.002591 196 4500ft 116kts
24-Jul-18 13:09 44.591388 -123.015881 196 4500ft 117kts
24-Jul-18 13:10 44.560192 -123.029198 196 4500ft 117kts
24-Jul-18 13:11 44.529096 -123.042457 196 4500ft 117kts
24-Jul-18 13:12 44.497891 -123.055749 196 4500ft 117kts
24-Jul-18 13:13 44.466797 -123.068978 196 4500ft 116kts
24-Jul-18 13:14 44.435712 -123.082190 196 4500ft 117kts
24-Jul-18 13:15 44.404507 -123.095438 196 4500ft 117kts
24-Jul-18 13:16 44.373390 -123.108634 196 4500ft 117kts
24-Jul-18 13:17 44.342256 -123.121825 196 4500ft 117kts
24-Jul-18 13:18 44.311039 -123.135037 196 4500ft 117kts
24-Jul-18 13:19 44.281200 -123.147702 196 4492ft 101kts
24-Jul-18 13:20 44.253106 -123.156191 185 4281ft 104kts
24-Jul-18 13:21 44.223072 -123.166220 192 3765ft 118kts
24-Jul-18 13:22 44.191160 -123.173364 187 3272ft 115kts
24-Jul-18 13:23 44.159726 -123.180155 188 2448ft 112kts
24-Jul-18 13:24 44.133112 -123.202108 183 1454ft 117kts
24-Jul-18 13:25 44.114884 -123.199892 169 1278ft 97kts
24-Jul-18 13:26 44.114884 -123.199892 169 1278ft 97kts
24-Jul-18 13:27 44.114884 -123.199892 169 1278ft 97kts
24-Jul-18 13:28 44.112976 -123.199579 178 1223ft 99kts
24-Jul-18 13:29 44.111719 -123.218835 353 728ft 73kts
24-Jul-18 13:30 44.125461 -123.218772 61 372ft 19kts
24-Jul-18 13:31 44.125132 -123.218188 142 372ft 0kts
24-Jul-18 13:32 44.125127 -123.218183 142 372ft 0kts
24-Jul-18 13:33 44.125124 -123.218180 142 372ft 0kts
24-Jul-18 13:34 44.113837 -123.218821 359 372ft 0kts
24-Jul-18 13:35 44.113857 -123.217847 251 372ft 0kts
24-Jul-18 13:36 44.113855 -123.217854 251 372ft 0kts
24-Jul-18 13:37 44.113853 -123.217862 251 372ft 0kts
24-Jul-18 13:38 44.113851 -123.217870 251 372ft 0kts

Navigation Log

Ident Type
Flight plan parsing failed, navigation log unavailable